This is the latest recevied weather packets stored in our database for station/object VK3XEM-13. If no packets are shown the sender has not sent any weather packets the latest 10 day(s).
| Time | Temp. | Humidity | Pressure | Rain* | Wind** | Luminosity | Snow |
|---|---|---|---|---|---|---|---|
| 1777510934 | 22.22° C | 49% | 1025.3 hPa | 0 mm | - | 433 W/m² | - |
| 1777510034 | 21.67° C | 51% | 1025.6 hPa | 0 mm | - | 280 W/m² | - |
| 1777509134 | 21.67° C | 51% | 1025.6 hPa | 0 mm | - | 451 W/m² | - |
| 1777508234 | 21.11° C | 53% | 1025.6 hPa | 0 mm | - | 322 W/m² | - |
| 1777507335 | 21.11° C | 54% | 1025.9 hPa | 0 mm | - | 404 W/m² | - |
| 1777506434 | 19.44° C | 56% | 1025.9 hPa | 0 mm | - | 335 W/m² | - |
| 1777505534 | 20° C | 55% | 1025.9 hPa | 0 mm | - | 301 W/m² | - |
| 1777504634 | 18.89° C | 56% | 1025.9 hPa | 0 mm | - | 264 W/m² | - |
| 1777503734 | 18.33° C | 57% | 1026.3 hPa | 0 mm | - | 168 W/m² | - |
| 1777502835 | 17.78° C | 59% | 1026.3 hPa | 0 mm | - | 198 W/m² | - |
| 1777501935 | 17.78° C | 61% | 1025.9 hPa | 0 mm | - | 138 W/m² | - |
| 1777501034 | 16.67° C | 64% | 1025.9 hPa | 0 mm | - | 94 W/m² | - |
| 1777500134 | 15° C | 68% | 1025.6 hPa | 0 mm | - | 60 W/m² | - |
| 1777499234 | 14.44° C | 70% | 1025.3 hPa | 0 mm | - | 37 W/m² | - |
| 1777498334 | 13.33° C | 76% | 1025.3 hPa | 0 mm | - | 28 W/m² | - |
| 1777497434 | 12.22° C | 80% | 1025.3 hPa | 0 mm | - | 17 W/m² | - |
| 1777496534 | 11.67° C | 83% | 1025.3 hPa | 0 mm | - | 6 W/m² | - |
| 1777495635 | 11.67° C | 82% | 1024.9 hPa | 0 mm | - | 1 W/m² | - |
| 1777494734 | 12.22° C | 81% | 1024.9 hPa | 0 mm | - | 0 W/m² | - |
| 1777493834 | 12.22° C | 80% | 1024.9 hPa | 0 mm | - | 0 W/m² | - |
| 1777492934 | 12.78° C | 79% | 1024.6 hPa | 0 mm | - | 0 W/m² | - |
| 1777492034 | 13.89° C | 75% | 1024.6 hPa | 0 mm | - | 0 W/m² | - |
| 1777491135 | 13.89° C | 75% | 1024.6 hPa | 0 mm | - | 0 W/m² | - |
| 1777490234 | 13.89° C | 76% | 1024.6 hPa | 0 mm | - | 0 W/m² | - |
| 1777489335 | 12.22° C | 82% | 1024.6 hPa | 0 mm | - | 0 W/m² | - |
* Rain latest hour (hover to see other rain measurements)
** Current wind speed in m/s (hover to see current wind gust speed)